createdAt,value
2019-04-06T00:04:13.009Z,97.30
2019-04-06T00:06:54.668Z,97.50
2019-04-06T00:12:21.877Z,97.80
2019-04-06T00:15:02.671Z,98.00
2019-04-06T00:17:44.047Z,98.10
2019-04-06T00:23:22.899Z,97.90
2019-04-06T00:26:04.336Z,98.10
2019-04-06T00:28:46.344Z,98.20
2019-04-06T00:34:12.328Z,98.60
2019-04-06T00:36:53.574Z,98.70
2019-04-06T00:39:34.958Z,98.70
2019-04-06T00:42:18.017Z,98.80
2019-04-06T00:44:59.273Z,99.20
2019-04-06T00:47:40.761Z,99.00
2019-04-06T00:50:20.520Z,99.00
2019-04-06T00:53:03.136Z,99.20
2019-04-06T00:55:55.117Z,99.20
2019-04-06T01:01:15.331Z,99.50
2019-04-06T01:03:57.276Z,99.70
2019-04-06T01:06:38.830Z,99.80
2019-04-06T01:09:19.735Z,99.80
2019-04-06T01:14:45.953Z,99.80
2019-04-06T01:17:27.198Z,99.80
2019-04-06T01:20:08.823Z,99.80
2019-04-06T01:22:50.351Z,99.60
2019-04-06T01:28:10.613Z,99.70
2019-04-06T01:33:41.113Z,99.80
2019-04-06T01:36:23.547Z,99.80
2019-04-06T01:39:06.548Z,99.80
2019-04-06T01:41:36.065Z,99.90
2019-04-06T01:45:02.965Z,99.80
2019-04-06T01:47:51.925Z,99.80
2019-04-06T01:50:36.334Z,99.70
2019-04-06T01:53:17.645Z,99.60
2019-04-06T01:55:59.008Z,99.60
2019-04-06T01:58:40.938Z,99.80
2019-04-06T02:01:21.735Z,99.70
2019-04-06T02:06:42.251Z,99.90
2019-04-06T02:12:15.842Z,99.90
2019-04-06T02:17:39.088Z,99.90
2019-04-06T02:20:21.162Z,99.90
2019-04-06T02:23:02.155Z,99.90
2019-04-06T02:25:31.578Z,99.90
2019-04-06T02:28:20.367Z,99.90
2019-04-06T02:31:29.220Z,99.90
2019-04-06T02:34:32.256Z,99.90
2019-04-06T02:37:28.248Z,99.90
2019-04-06T02:40:16.401Z,99.90
2019-04-06T02:43:02.746Z,99.90
2019-04-06T02:48:33.668Z,99.90
2019-04-06T02:51:15.535Z,99.90
2019-04-06T02:53:59.712Z,99.90
2019-04-06T02:56:46.323Z,99.90
2019-04-06T02:59:24.995Z,99.90
2019-04-06T03:02:07.555Z,99.90
2019-04-06T03:04:49.574Z,99.90
2019-04-06T03:07:31.077Z,99.90
2019-04-06T03:10:12.736Z,99.90
2019-04-06T03:15:39.784Z,99.90
2019-04-06T03:18:09.274Z,99.90
2019-04-06T03:20:57.794Z,99.90
2019-04-06T03:23:51.231Z,99.90
2019-04-06T03:26:29.943Z,99.90
2019-04-06T03:29:11.534Z,99.90
2019-04-06T03:31:57.124Z,99.90
2019-04-06T03:34:39.374Z,99.90
2019-04-06T03:37:20.903Z,99.90
2019-04-06T03:40:02.501Z,99.90
2019-04-06T03:45:28.254Z,99.90
2019-04-06T03:50:36.533Z,99.90
2019-04-06T03:53:25.365Z,99.90
2019-04-06T03:56:07.108Z,99.90
2019-04-06T03:58:51.884Z,99.90
2019-04-06T04:01:32.097Z,99.90
2019-04-06T04:04:12.915Z,99.90
2019-04-06T04:06:54.326Z,99.90
2019-04-06T04:12:20.283Z,99.90
2019-04-06T04:14:49.755Z,99.90
2019-04-06T04:17:38.524Z,99.90
2019-04-06T04:20:27.415Z,99.90
2019-04-06T04:23:10.029Z,99.90
2019-04-06T04:25:51.196Z,99.90
2019-04-06T04:28:35.800Z,99.90
2019-04-06T04:31:17.396Z,99.90
2019-04-06T04:33:58.744Z,99.90
2019-04-06T04:36:41.671Z,99.90
2019-04-06T04:39:23.418Z,99.90
2019-04-06T04:42:04.793Z,99.90
2019-04-06T04:44:34.340Z,99.90
2019-04-06T04:47:23.118Z,99.90
2019-04-06T04:50:11.945Z,99.90
2019-04-06T04:52:52.909Z,99.90
2019-04-06T04:55:34.292Z,99.90
2019-04-06T04:58:16.001Z,99.90
2019-04-06T05:01:00.251Z,99.90
2019-04-06T05:06:32.970Z,99.90
2019-04-06T05:12:05.851Z,99.90
2019-04-06T05:17:31.589Z,99.90
2019-04-06T05:20:01.307Z,99.90
2019-04-06T05:22:49.755Z,99.90
2019-04-06T05:25:32.385Z,99.90
2019-04-06T05:31:02.195Z,99.90
2019-04-06T05:33:43.397Z,99.90
2019-04-06T05:36:24.689Z,99.90
2019-04-06T05:39:07.070Z,99.90
2019-04-06T05:44:39.881Z,99.90
2019-04-06T05:47:21.096Z,99.90
2019-04-06T05:50:02.603Z,99.90
2019-04-06T05:52:44.220Z,99.90
2019-04-06T05:58:11.282Z,99.90
2019-04-06T06:00:52.750Z,99.90
2019-04-06T06:06:13.427Z,99.90
2019-04-06T06:08:57.672Z,99.90
2019-04-06T06:14:27.638Z,99.90
2019-04-06T06:17:09.032Z,99.90
2019-04-06T06:22:36.345Z,99.90
2019-04-06T06:36:50.887Z,99.90
2019-04-06T06:39:32.211Z,99.90
2019-04-06T06:42:16.585Z,99.90
2019-04-06T06:44:57.786Z,99.90
2019-04-06T06:47:39.461Z,99.90
2019-04-06T06:50:20.649Z,99.90
2019-04-06T06:53:05.077Z,99.90
2019-04-06T06:55:46.806Z,99.90
2019-04-06T06:58:31.271Z,99.90
2019-04-06T07:01:18.264Z,99.90
2019-04-06T07:04:03.942Z,99.90
2019-04-06T07:13:09.064Z,98.60
2019-04-06T07:18:35.542Z,99.20
2019-04-06T07:24:02.053Z,99.30
2019-04-06T07:26:43.736Z,99.30
2019-04-06T07:32:10.628Z,99.40
2019-04-06T07:34:52.338Z,99.30
2019-04-06T07:37:33.483Z,99.30
2019-04-06T07:40:18.206Z,99.20
2019-04-06T07:42:59.823Z,99.00
2019-04-06T07:45:42.292Z,98.80
2019-04-06T07:48:23.845Z,98.70
2019-04-06T07:51:05.202Z,98.60
2019-04-06T07:53:49.778Z,98.20
2019-04-06T07:56:31.693Z,98.20
2019-04-06T07:59:13.352Z,97.90
2019-04-06T08:01:54.601Z,97.30
2019-04-06T08:04:35.871Z,97.30
2019-04-06T08:10:08.096Z,96.90
2019-04-06T08:15:28.353Z,96.20
2019-04-06T08:20:43.370Z,95.70
2019-04-06T08:23:32.037Z,96.10
2019-04-06T08:31:43.137Z,96.60
2019-04-06T08:34:24.634Z,96.40
2019-04-06T08:39:52.098Z,95.60
2019-04-06T08:42:33.811Z,95.60
2019-04-06T08:45:24.063Z,95.50
2019-04-06T08:48:12.604Z,95.30
2019-04-06T08:50:54.605Z,94.70
2019-04-06T08:53:36.097Z,94.50
2019-04-06T08:56:17.914Z,94.20
2019-04-06T08:59:10.160Z,94.10
2019-04-06T09:01:42.763Z,94.00
2019-04-06T09:04:24.544Z,94.50
2019-04-06T09:07:05.051Z,94.70
2019-04-06T09:09:46.720Z,94.90
2019-04-06T09:12:30.966Z,94.10
2019-04-06T09:15:13.208Z,93.80
2019-04-06T09:20:45.301Z,92.60
2019-04-06T09:23:26.700Z,92.00
2019-04-06T09:28:54.185Z,91.30
2019-04-06T09:34:48.016Z,90.20
2019-04-06T09:40:13.546Z,90.10
2019-04-06T09:42:55.476Z,89.60
2019-04-06T09:45:41.406Z,89.70
2019-04-06T09:48:21.779Z,90.10
2019-04-06T09:51:13.573Z,88.90
2019-04-06T09:57:02.889Z,89.10
2019-04-06T10:02:29.525Z,87.00
2019-04-06T10:05:36.278Z,86.10
2019-04-06T10:08:39.955Z,86.50
2019-04-06T10:11:33.128Z,86.90
2019-04-06T10:17:39.240Z,87.10
2019-04-06T10:23:27.183Z,88.40
2019-04-06T10:29:46.812Z,85.50
2019-04-06T10:32:30.515Z,84.70
2019-04-06T10:35:24.571Z,82.70
2019-04-06T10:46:30.431Z,80.90
2019-04-06T10:52:20.195Z,78.60
2019-04-06T10:58:17.953Z,80.50
2019-04-06T11:04:02.699Z,81.60
2019-04-06T11:07:05.889Z,80.90
2019-04-06T11:09:58.843Z,79.60
2019-04-06T11:12:59.332Z,79.00
2019-04-06T11:21:44.666Z,78.40
2019-04-06T11:24:29.073Z,76.90
2019-04-06T11:30:15.463Z,77.00
2019-04-06T11:33:17.380Z,74.90
2019-04-06T11:39:21.471Z,73.90
2019-04-06T11:42:23.807Z,74.50
2019-04-06T11:45:10.435Z,75.30
2019-04-06T11:47:50.936Z,74.90
2019-04-06T11:50:53.723Z,72.40
2019-04-06T11:56:53.374Z,70.20
2019-04-06T12:05:27.426Z,66.30
2019-04-06T12:11:12.861Z,66.90
2019-04-06T12:14:14.754Z,68.90
2019-04-06T12:20:17.234Z,68.50
2019-04-06T12:23:21.003Z,69.30
2019-04-06T12:29:06.864Z,69.50
2019-04-06T12:35:09.053Z,71.50
2019-04-06T12:38:09.495Z,69.90
2019-04-06T12:43:49.111Z,69.00
2019-04-06T12:49:43.124Z,68.80
2019-04-06T12:55:52.116Z,62.80
2019-04-06T12:58:45.775Z,58.90
2019-04-06T13:01:34.400Z,54.80
2019-04-06T13:07:24.651Z,49.80
2019-04-06T13:13:22.688Z,51.60
2019-04-06T13:19:09.798Z,48.30
2019-04-06T13:24:36.762Z,40.50
2019-04-06T13:27:39.718Z,37.90
2019-04-06T13:33:24.713Z,39.90
2019-04-06T13:36:12.876Z,43.70
2019-04-06T13:38:57.176Z,46.60
2019-04-06T13:42:00.223Z,48.10
2019-04-06T13:44:54.633Z,49.40
2019-04-06T13:47:59.194Z,51.90
2019-04-06T13:50:49.371Z,52.10
2019-04-06T13:53:31.297Z,51.50
2019-04-06T13:56:20.654Z,52.00
2019-04-06T13:59:18.124Z,51.10
2019-04-06T14:08:14.300Z,49.50
2019-04-06T14:11:17.581Z,49.70
2019-04-06T14:13:57.561Z,50.00
2019-04-06T14:17:01.454Z,50.80
2019-04-06T14:19:42.360Z,52.50
2019-04-06T14:22:31.826Z,53.20
2019-04-06T14:25:16.981Z,53.10
2019-04-06T14:31:04.481Z,47.40
2019-04-06T14:36:29.649Z,41.90
2019-04-06T14:39:25.049Z,42.60
2019-04-06T14:42:24.958Z,43.50
2019-04-06T14:45:32.269Z,44.10
2019-04-06T14:51:35.992Z,46.90
2019-04-06T14:57:33.113Z,47.50
2019-04-06T15:03:05.070Z,43.30
2019-04-06T15:05:57.577Z,40.70
2019-04-06T15:08:49.338Z,39.00
2019-04-06T15:14:16.299Z,39.10
2019-04-06T15:16:58.074Z,41.00
2019-04-06T15:19:39.472Z,42.80
2019-04-06T15:22:28.676Z,43.40
2019-04-06T15:28:55.720Z,46.50
2019-04-06T15:31:51.324Z,45.20
2019-04-06T15:34:40.105Z,45.30
2019-04-06T15:40:46.744Z,46.10
2019-04-06T15:46:56.446Z,48.40
2019-04-06T15:49:46.142Z,49.20
2019-04-06T15:52:30.645Z,50.20
2019-04-06T15:55:24.919Z,51.60
2019-04-06T15:58:29.296Z,52.10
2019-04-06T16:01:35.004Z,51.30
2019-04-06T16:07:04.791Z,49.00
2019-04-06T16:12:58.146Z,45.00
2019-04-06T16:15:53.460Z,45.40
2019-04-06T16:19:01.156Z,46.50
2019-04-06T16:27:23.272Z,50.70
2019-04-06T16:33:17.027Z,52.00
2019-04-06T16:38:43.032Z,51.50
2019-04-06T16:44:31.454Z,52.30
2019-04-06T16:50:08.777Z,51.90
2019-04-06T16:55:43.442Z,51.30
2019-04-06T16:58:51.415Z,51.10
2019-04-06T17:04:39.948Z,51.00
2019-04-06T17:07:33.536Z,50.40
2019-04-06T17:10:17.579Z,50.70
2019-04-06T17:13:16.470Z,50.30
2019-04-06T17:16:21.163Z,49.70
2019-04-06T17:19:24.830Z,49.80
2019-04-06T17:22:23.535Z,51.10
2019-04-06T17:28:12.511Z,53.20
2019-04-06T17:33:58.986Z,55.10
2019-04-06T17:37:03.316Z,55.70
2019-04-06T17:42:59.540Z,56.00
2019-04-06T17:46:07.593Z,56.10
2019-04-06T17:48:48.350Z,56.30
2019-04-06T17:51:36.166Z,56.80
2019-04-06T17:54:41.237Z,58.10
2019-04-06T17:57:45.691Z,59.00
2019-04-06T18:03:53.373Z,62.00
2019-04-06T18:09:28.135Z,70.20
2019-04-06T18:14:54.119Z,76.80
2019-04-06T18:17:36.343Z,79.80
2019-04-06T18:23:05.533Z,84.50
2019-04-06T18:25:46.715Z,86.40
2019-04-06T18:28:28.615Z,87.70
2019-04-06T18:34:14.888Z,90.00
2019-04-06T18:37:20.725Z,90.10
2019-04-06T18:40:03.081Z,90.50
2019-04-06T18:42:45.293Z,90.90
2019-04-06T18:45:29.105Z,91.30
2019-04-06T18:48:10.001Z,91.60
2019-04-06T18:50:51.751Z,92.30
2019-04-06T18:56:23.638Z,93.70
2019-04-06T18:59:05.111Z,94.50
2019-04-06T19:01:46.765Z,95.20
2019-04-06T19:04:28.087Z,95.80
2019-04-06T19:07:10.871Z,96.20
2019-04-06T19:09:53.354Z,96.50
2019-04-06T19:12:35.233Z,96.90
2019-04-06T19:15:17.824Z,97.00
2019-04-06T19:20:44.931Z,97.50
2019-04-06T19:23:25.126Z,97.70
2019-04-06T19:26:06.000Z,97.70
2019-04-06T19:28:47.091Z,97.90
2019-04-06T19:31:27.296Z,97.90
2019-04-06T19:34:08.169Z,98.00
2019-04-06T19:36:49.172Z,98.10
2019-04-06T19:39:33.415Z,98.20
2019-04-06T19:42:15.840Z,98.30
2019-04-06T19:44:59.073Z,98.80
2019-04-06T19:47:40.771Z,98.60
2019-04-06T19:50:10.574Z,98.70
2019-04-06T19:53:00.820Z,98.90
2019-04-06T19:55:43.741Z,99.00
2019-04-06T19:58:24.729Z,99.20
2019-04-06T20:01:06.105Z,99.40
2019-04-06T20:03:47.821Z,99.40
2019-04-06T20:12:10.771Z,99.90
2019-04-06T20:14:51.832Z,99.90
2019-04-06T20:17:33.270Z,99.90
2019-04-06T20:20:14.505Z,99.90
2019-04-06T20:25:40.024Z,99.90
2019-04-06T20:28:22.177Z,99.90
2019-04-06T20:31:03.082Z,99.90
2019-04-06T20:33:50.311Z,99.90
2019-04-06T20:36:27.137Z,99.90
2019-04-06T20:38:56.768Z,99.90
2019-04-06T20:44:44.942Z,99.90
2019-04-06T20:47:33.524Z,99.90
2019-04-06T20:50:14.836Z,99.90
2019-04-06T20:52:55.992Z,99.90
2019-04-06T20:55:36.815Z,99.90
2019-04-06T20:58:18.310Z,99.90
2019-04-06T21:00:59.988Z,99.90
2019-04-06T21:03:40.814Z,99.90
2019-04-06T21:06:22.729Z,99.90
2019-04-06T21:11:52.268Z,99.90
2019-04-06T21:17:17.471Z,99.90
2019-04-06T21:19:47.088Z,99.90
2019-04-06T21:22:35.602Z,99.90
2019-04-06T21:25:43.231Z,99.90
2019-04-06T21:28:24.500Z,99.90
2019-04-06T21:31:06.235Z,99.90
2019-04-06T21:36:36.793Z,99.90
2019-04-06T21:39:19.399Z,99.90
2019-04-06T21:42:00.780Z,99.90
2019-04-06T21:44:43.474Z,99.90
2019-04-06T21:47:24.745Z,99.90
2019-04-06T21:50:06.791Z,99.90
2019-04-06T21:52:49.418Z,99.90
2019-04-06T21:55:31.211Z,99.90
2019-04-06T21:58:00.654Z,99.90
2019-04-06T22:03:52.331Z,99.90
2019-04-06T22:12:13.957Z,99.90
2019-04-06T22:17:34.934Z,99.90
2019-04-06T22:20:16.736Z,99.90
2019-04-06T22:22:58.382Z,99.90
2019-04-06T22:28:24.578Z,99.90
2019-04-06T22:31:06.523Z,99.90
2019-04-06T22:33:47.619Z,99.90
2019-04-06T22:36:29.210Z,99.90
2019-04-06T22:39:11.137Z,99.90
2019-04-06T22:41:52.398Z,99.90
2019-04-06T22:47:19.939Z,99.90
2019-04-06T22:50:01.735Z,99.90
2019-04-06T22:52:43.455Z,99.90
2019-04-06T22:55:25.484Z,99.90
2019-04-06T22:58:06.503Z,99.90
2019-04-06T23:00:52.779Z,99.90
2019-04-06T23:03:37.977Z,99.90
2019-04-06T23:06:25.466Z,99.90
2019-04-06T23:11:54.233Z,99.90
2019-04-06T23:14:35.485Z,99.90
2019-04-06T23:17:17.079Z,99.90
2019-04-06T23:20:03.179Z,99.90
2019-04-06T23:22:44.627Z,99.90
2019-04-06T23:25:29.520Z,99.90
2019-04-06T23:28:10.833Z,99.90
2019-04-06T23:33:38.962Z,99.90
2019-04-06T23:39:05.754Z,99.90
2019-04-06T23:41:48.399Z,99.90
2019-04-06T23:44:33.876Z,99.90
2019-04-06T23:47:16.040Z,99.90
2019-04-06T23:49:58.410Z,99.90
2019-04-06T23:58:25.000Z,99.90
